Albacete/Los Llanos, Spain
Current Conditions -  °F | °C
As of 2:00 PM on Monday 24 Nov 2014 (Local Time) from LEAB Reporting Station
Scattered Clouds Scattered Clouds  
Wind Chill: 61°   Ceiling: Unl
Heat Index: 61°   Visibility: 6mi
Dew Point: 54°   Wind: 7mph
Humidity: 77%   Direction: 40°NE
Pressure: 30.03"   Gusts: NA
Location:  38.95°N, 1.85°W
Report Text: LEAB 241300Z 04006KT 9999 SCT023 16/12 Q1017 NOSIG
Loading
Personal Weather Stations






























Interactive Weather Map New forecast layout! Learn more

10-Day Weather Forecast

Advertisements
Track Severe Weather on mobile